Time;durP1;ratioP1;P1;durP2;ratioP2;P2;SDS_P1;SDS_P2;PMS_P1;PMS_P2;Temp;Humidity;BMP_temperature;BMP_pressure;BME280_temperature;BME280_humidity;BME280_pressure;Samples;Min_cycle;Max_cycle;Signal;HPM_P1;HPM_P2
2022/11/19 00:00:40;;;;;;;14.82;11.35;;;;;;;5.16;100.00;100783.28;5072732;28;20028;-35
2022/11/19 00:03:05;;;;;;;14.70;13.02;;;;;;;5.03;100.00;100779.72;5072850;28;20113;-35
2022/11/19 00:05:31;;;;;;;17.43;13.43;;;;;;;5.11;100.00;100784.91;5072526;28;20044;-34
2022/11/19 00:07:56;;;;;;;16.00;12.03;;;;;;;5.17;100.00;100792.16;5072997;28;20058;-35
2022/11/19 00:10:21;;;;;;;15.07;12.50;;;;;;;5.07;100.00;100787.13;5072927;28;20028;-35
2022/11/19 00:12:55;;;;;;;16.40;12.40;;;;;;;4.85;100.00;100796.28;5072718;28;20491;-35
2022/11/19 00:15:22;;;;;;;15.30;13.45;;;;;;;4.72;100.00;100793.47;5072665;28;20468;-35
2022/11/19 00:17:47;;;;;;;16.95;14.13;;;;;;;4.59;100.00;100778.97;5072988;28;20039;-35
2022/11/19 00:20:13;;;;;;;19.05;14.32;;;;;;;4.74;100.00;100791.44;5072848;28;20029;-35
2022/11/19 00:22:40;;;;;;;16.15;12.68;;;;;;;4.78;100.00;100798.06;5073451;28;20059;-35
2022/11/19 00:25:06;;;;;;;17.20;13.60;;;;;;;4.66;100.00;100797.75;5072461;28;20033;-35
2022/11/19 00:27:31;;;;;;;20.00;14.65;;;;;;;4.66;100.00;100797.75;5072561;28;20036;-35
2022/11/19 00:29:57;;;;;;;22.57;14.37;;;;;;;4.70;100.00;100793.69;5073055;28;20040;-35
2022/11/19 00:32:22;;;;;;;15.30;12.70;;;;;;;4.74;100.00;100808.34;5073090;28;20025;-35
2022/11/19 00:34:47;;;;;;;23.97;14.87;;;;;;;4.51;100.00;100775.59;5072666;28;20032;-35
2022/11/19 00:37:13;;;;;;;19.20;14.00;;;;;;;4.72;100.00;100801.50;5072737;28;20020;-35
2022/11/19 00:39:38;;;;;;;17.10;13.97;;;;;;;4.73;100.00;100803.16;5072789;28;20400;-35
2022/11/19 00:42:03;;;;;;;21.10;15.00;;;;;;;4.70;100.00;100800.88;5072880;28;20028;-35
2022/11/19 00:44:28;;;;;;;20.00;15.13;;;;;;;4.69;100.00;100807.28;5071034;28;20473;-35
2022/11/19 00:46:54;;;;;;;19.87;15.40;;;;;;;4.53;100.00;100794.97;5072949;28;20032;-35
2022/11/19 00:49:19;;;;;;;23.07;16.00;;;;;;;4.68;100.00;100806.41;5072647;28;20024;-34
2022/11/19 00:51:45;;;;;;;18.27;14.30;;;;;;;4.53;100.00;100811.03;5072254;28;20510;-35
2022/11/19 00:54:10;;;;;;;23.95;16.88;;;;;;;4.49;100.00;100804.41;5072802;28;20074;-34
2022/11/19 00:56:36;;;;;;;19.57;15.67;;;;;;;4.46;100.00;100796.75;5075206;28;20064;-35
2022/11/19 00:59:01;;;;;;;21.10;15.07;;;;;;;4.54;100.00;100810.84;5076607;28;20537;-35
2022/11/19 01:01:27;;;;;;;24.20;15.60;;;;;;;4.61;100.00;100809.06;5075721;28;20048;-35
2022/11/19 01:03:53;;;;;;;20.37;15.00;;;;;;;4.50;100.00;100816.78;5075957;28;20051;-35
2022/11/19 01:06:22;;;;;;;18.70;14.05;;;;;;;4.62;100.00;100820.59;5076135;28;20447;-35
2022/11/19 01:08:48;;;;;;;22.20;16.38;;;;;;;4.37;100.00;100812.94;5075822;28;20036;-35
2022/11/19 01:11:18;;;;;;;17.15;13.93;;;;;;;4.36;100.00;100826.53;5075860;28;20020;-35
2022/11/19 01:13:44;;;;;;;16.80;14.48;;;;;;;4.23;100.00;100818.34;5076097;28;20029;-35
2022/11/19 01:16:13;;;;;;;19.17;14.98;;;;;;;4.26;100.00;100831.38;5075432;28;20060;-35
2022/11/19 01:18:40;;;;;;;19.05;15.20;;;;;;;4.28;100.00;100829.31;5076220;28;20072;-35
2022/11/19 01:21:06;;;;;;;17.77;13.77;;;;;;;4.35;100.00;100835.59;5075182;28;20067;-35
2022/11/19 01:23:32;;;;;;;20.25;14.48;;;;;;;4.35;100.00;100835.59;5075981;28;20041;-35
2022/11/19 01:25:58;;;;;;;18.08;14.13;;;;;;;4.36;100.00;100834.56;5075363;28;20075;-34
2022/11/19 01:28:24;;;;;;;18.23;14.50;;;;;;;4.29;100.00;100839.84;5075064;28;20036;-34
2022/11/19 01:30:49;;;;;;;17.65;14.07;;;;;;;4.27;100.00;100843.72;5075205;28;20067;-34
2022/11/19 01:33:15;;;;;;;17.52;13.75;;;;;;;4.33;100.00;100846.47;5075771;28;20050;-35
2022/11/19 01:35:41;;;;;;;20.37;13.70;;;;;;;4.34;100.00;100852.66;5075032;28;20025;-34
2022/11/19 01:38:06;;;;;;;16.30;13.00;;;;;;;4.28;100.00;100854.25;5075090;28;20720;-34
2022/11/19 01:40:33;;;;;;;14.95;12.80;;;;;;;4.24;100.00;100847.59;5075035;28;20067;-34
2022/11/19 01:42:58;;;;;;;15.10;12.80;;;;;;;4.13;100.00;100834.72;5075261;28;20435;-34
2022/11/19 01:45:53;;;;;;;16.97;13.27;;;;;;;4.22;100.00;100859.53;5074976;28;20116;-34
2022/11/19 01:48:25;;;;;;;15.82;12.82;;;;;;;4.14;100.00;100847.09;5075651;28;20665;-34
2022/11/19 01:50:55;;;;;;;16.73;12.57;;;;;;;4.28;100.00;100864.94;5074592;28;20059;-34
2022/11/19 01:53:25;;;;;;;15.52;12.88;;;;;;;4.21;100.00;100857.88;5074791;28;20067;-34
2022/11/19 01:55:50;;;;;;;17.60;13.27;;;;;;;4.12;100.00;100858.00;5074550;28;20514;-34
2022/11/19 01:58:22;;;;;;;15.30;11.87;;;;;;;4.03;100.00;100855.59;5074451;28;20032;-34
2022/11/19 02:00:47;;;;;;;14.73;11.93;;;;;;;4.10;100.00;100869.91;5074629;28;20031;-34
2022/11/19 02:03:14;;;;;;;15.00;11.95;;;;;;;4.00;100.00;100878.22;5074873;28;20024;-34
2022/11/19 02:05:41;;;;;;;13.35;11.27;;;;;;;4.10;100.00;100883.28;5074705;28;20480;-34
2022/11/19 02:08:27;;;;;;;13.82;11.77;;;;;;;4.09;100.00;100873.59;5074628;28;20028;-34
2022/11/19 02:11:16;;;;;;;15.48;11.60;;;;;;;4.23;100.00;100879.91;5074023;28;20029;-34
2022/11/19 02:13:48;;;;;;;15.80;12.02;;;;;;;4.19;100.00;100878.63;5064023;28;20155;-34
2022/11/19 02:16:26;;;;;;;14.07;11.75;;;;;;;4.25;100.00;100881.41;5074521;28;20032;-34
2022/11/19 02:18:59;;;;;;;14.90;11.43;;;;;;;4.08;100.00;100869.25;5073892;28;20094;-34
2022/11/19 02:21:48;;;;;;;14.15;11.02;;;;;;;4.14;100.00;100881.88;5074139;28;20112;-34
2022/11/19 02:24:30;;;;;;;14.15;11.50;;;;;;;4.03;100.00;100893.06;5074840;28;20367;-34
2022/11/19 02:27:08;;;;;;;14.30;11.73;;;;;;;3.96;100.00;100892.16;5074602;28;20116;-34
2022/11/19 02:29:55;;;;;;;13.30;11.40;;;;;;;3.84;100.00;100895.28;5074541;28;20060;-34
2022/11/19 02:32:31;;;;;;;14.32;12.23;;;;;;;3.78;100.00;100895.22;5073910;28;20054;-34
2022/11/19 02:35:23;;;;;;;14.95;10.50;;;;;;;3.76;100.00;100890.06;5073524;28;20465;-34
2022/11/19 02:37:58;;;;;;;14.43;11.43;;;;;;;3.61;100.00;100878.50;5074133;28;20111;-34
2022/11/19 02:40:37;;;;;;;13.10;10.77;;;;;;;3.52;100.00;100863.59;5072492;28;20028;-34
2022/11/19 02:43:09;;;;;;;15.35;11.70;;;;;;;3.60;100.00;100888.38;5074041;28;20028;-34
2022/11/19 02:45:34;;;;;;;13.50;11.98;;;;;;;3.44;100.00;100885.06;5073779;28;20033;-34
2022/11/19 02:48:06;;;;;;;12.90;11.37;;;;;;;3.47;100.00;100900.75;5073723;28;20039;-34
2022/11/19 02:50:41;;;;;;;12.45;11.10;;;;;;;3.24;100.00;100880.25;5073707;28;20072;-34
2022/11/19 02:53:06;;;;;;;11.60;10.40;;;;;;;3.33;100.00;100891.69;5073824;28;20024;-34
2022/11/19 02:55:34;;;;;;;13.97;11.93;;;;;;;3.26;100.00;100896.09;5073208;28;20085;-34
2022/11/19 03:04:28;;;;;;;13.68;11.15;;;;;;;3.22;100.00;100908.16;5073545;28;20044;-34
2022/11/19 03:06:33;;;;;;;13.82;12.40;;;;;;;3.05;100.00;100891.47;5073305;28;20104;-34
2022/11/19 03:08:59;;;;;;;14.70;12.82;;;;;;;2.99;100.00;100897.53;5073279;28;20098;-34
2022/11/19 03:11:29;;;;;;;14.88;13.18;;;;;;;3.07;100.00;100916.13;5073172;28;20035;-34
2022/11/19 03:17:03;;;;;;;14.68;12.60;;;;;;;3.09;100.00;100914.13;5072821;28;20102;-37
2022/11/19 03:19:47;;;;;;;14.88;11.82;;;;;;;3.05;100.00;100910.16;5072604;28;20028;-34
2022/11/19 03:22:22;;;;;;;15.88;13.48;;;;;;;3.02;100.00;100923.88;5073323;28;20060;-34
2022/11/19 03:24:59;;;;;;;18.67;13.45;;;;;;;3.07;100.00;100929.50;5073477;28;20633;-34
2022/11/19 03:27:47;;;;;;;17.25;13.73;;;;;;;3.03;100.00;100904.19;5073235;28;20349;-34
2022/11/19 03:30:15;;;;;;;19.42;13.60;;;;;;;3.06;100.00;100901.13;5072871;28;20424;-34
2022/11/19 03:32:45;;;;;;;14.75;12.80;;;;;;;3.12;100.00;100916.44;5072805;28;20044;-34
2022/11/19 03:35:16;;;;;;;16.50;14.50;;;;;;;2.99;100.00;100911.72;5073479;28;20082;-34
2022/11/19 03:37:45;;;;;;;17.17;13.77;;;;;;;3.03;100.00;100933.56;5072944;28;20060;-34
2022/11/19 03:40:14;;;;;;;16.48;13.93;;;;;;;3.07;100.00;100926.81;5072885;28;20093;-34
2022/11/19 03:42:41;;;;;;;18.67;14.23;;;;;;;2.85;100.00;100925.84;5073106;28;20036;-34
2022/11/19 03:45:18;;;;;;;16.15;13.93;;;;;;;3.05;100.00;100926.19;5073168;28;20056;-34
2022/11/19 03:47:47;;;;;;;16.52;14.02;;;;;;;3.06;100.00;100925.16;5072660;28;20100;-34
2022/11/19 03:50:22;;;;;;;17.55;13.93;;;;;;;3.08;100.00;100923.16;5072714;28;20522;-34
2022/11/19 03:52:48;;;;;;;18.08;14.57;;;;;;;3.04;100.00;100927.19;5073123;28;20141;-34
2022/11/19 03:55:15;;;;;;;17.52;14.00;;;;;;;3.11;100.00;100930.81;5072762;28;20115;-34
2022/11/19 03:57:41;;;;;;;19.67;13.60;;;;;;;3.10;100.00;100929.16;5072497;28;20584;-34
2022/11/19 04:00:07;;;;;;;17.65;14.13;;;;;;;2.99;100.00;100929.59;5073268;28;20151;-34
2022/11/19 04:02:32;;;;;;;18.35;15.10;;;;;;;2.98;100.00;100933.28;5072966;28;20028;-34
2022/11/19 04:04:58;;;;;;;15.63;13.00;;;;;;;2.91;100.00;100927.78;5073513;28;20130;-34
2022/11/19 04:07:23;;;;;;;18.50;14.63;;;;;;;2.98;100.00;100942.13;5073256;28;20266;-34
2022/11/19 04:09:49;;;;;;;16.00;13.97;;;;;;;3.09;100.00;100940.84;5072803;28;20111;-34
2022/11/19 04:12:17;;;;;;;16.48;13.93;;;;;;;3.09;100.00;100951.53;5072343;28;20274;-34
2022/11/19 04:14:43;;;;;;;18.38;14.05;;;;;;;3.12;100.00;100955.69;5072255;28;20033;-34
2022/11/19 04:17:08;;;;;;;16.40;14.60;;;;;;;3.13;100.00;100950.19;5072729;28;20346;-34
2022/11/19 04:19:33;;;;;;;19.13;16.70;;;;;;;2.97;100.00;100950.28;5073064;28;20075;-34
2022/11/19 04:21:59;;;;;;;16.90;14.70;;;;;;;3.03;100.00;100957.59;5072779;28;20374;-34
2022/11/19 04:24:24;;;;;;;19.73;16.90;;;;;;;3.00;100.00;100958.78;5072513;28;20115;-34
2022/11/19 04:26:49;;;;;;;20.53;16.30;;;;;;;2.97;100.00;100963.66;5072170;28;20120;-34
2022/11/19 04:29:15;;;;;;;19.13;16.77;;;;;;;2.87;100.00;100971.91;5072988;28;20107;-34
2022/11/19 04:31:40;;;;;;;20.85;16.30;;;;;;;2.96;100.00;100972.69;5075764;28;20074;-34
2022/11/19 04:34:06;;;;;;;21.33;16.67;;;;;;;2.97;100.00;100974.31;5075906;28;20029;-34
2022/11/19 04:36:32;;;;;;;18.73;16.23;;;;;;;2.92;100.00;100974.88;5076131;28;20033;-34
2022/11/19 04:38:57;;;;;;;18.83;16.75;;;;;;;2.94;100.00;100972.88;5076370;28;20113;-34
2022/11/19 04:41:22;;;;;;;21.03;18.03;;;;;;;2.78;100.00;100971.13;5076155;28;20329;-34
2022/11/19 04:43:47;;;;;;;21.10;17.03;;;;;;;2.86;100.00;100966.75;5076166;28;20037;-34
2022/11/19 04:46:13;;;;;;;20.77;18.17;;;;;;;2.74;100.00;100980.50;5076747;28;20039;-34
2022/11/19 04:48:38;;;;;;;21.20;17.83;;;;;;;2.75;100.00;100984.00;5076108;28;20107;-34
2022/11/19 04:51:04;;;;;;;21.80;18.37;;;;;;;2.76;100.00;100993.69;5075654;28;20090;-34
2022/11/19 04:53:29;;;;;;;21.90;18.07;;;;;;;2.67;100.00;100984.03;5075928;28;20032;-34
2022/11/19 04:55:54;;;;;;;21.60;17.37;;;;;;;2.74;100.00;100979.69;5075737;28;20066;-34
2022/11/19 04:58:19;;;;;;;20.10;17.13;;;;;;;2.83;100.00;100997.28;5075786;28;20214;-34
2022/11/19 05:00:47;;;;;;;19.80;17.30;;;;;;;2.79;100.00;100993.34;5075417;28;20028;-34
2022/11/19 05:03:12;;;;;;;19.65;17.52;;;;;;;2.78;100.00;100997.84;5075570;28;20526;-34
2022/11/19 05:05:37;;;;;;;20.97;18.73;;;;;;;2.66;100.00;101009.09;5076096;28;20068;-34
2022/11/19 05:08:03;;;;;;;19.97;17.87;;;;;;;2.48;100.00;101001.31;5074389;28;20037;-34
2022/11/19 05:10:28;;;;;;;22.17;18.63;;;;;;;2.63;100.00;101010.25;5075306;28;20032;-34
2022/11/19 05:12:53;;;;;;;22.20;19.80;;;;;;;2.60;100.00;101021.31;5076234;28;20369;-34
2022/11/19 05:15:19;;;;;;;22.20;19.17;;;;;;;2.50;100.00;101012.69;5075157;28;20478;-34
2022/11/19 05:17:44;;;;;;;23.23;19.90;;;;;;;2.54;100.00;101028.19;5075709;28;20021;-34
2022/11/19 05:20:09;;;;;;;21.27;19.00;;;;;;;2.53;100.00;101021.16;5075875;28;20132;-34
2022/11/19 05:22:35;;;;;;;22.57;20.17;;;;;;;2.47;100.00;101034.38;5075487;28;20457;-34
2022/11/19 05:25:00;;;;;;;22.57;20.17;;;;;;;2.38;100.00;101030.91;5075559;28;20037;-34
2022/11/19 05:27:26;;;;;;;22.30;19.40;;;;;;;2.45;100.00;101028.38;5075466;28;20342;-34
2022/11/19 05:29:51;;;;;;;21.63;19.30;;;;;;;2.51;100.00;101033.03;5074837;28;20063;-34
2022/11/19 05:32:16;;;;;;;23.23;19.83;;;;;;;2.42;100.00;101040.22;5075283;28;20134;-34
2022/11/19 05:34:42;;;;;;;22.87;19.97;;;;;;;2.28;100.00;101033.75;5075455;28;20119;-34
2022/11/19 05:37:07;;;;;;;24.40;21.10;;;;;;;2.27;100.00;101021.44;5075752;28;20025;-34
2022/11/19 05:39:32;;;;;;;23.10;20.63;;;;;;;2.38;100.00;101022.88;5075325;28;20025;-34
2022/11/19 05:41:58;;;;;;;22.43;20.00;;;;;;;2.46;100.00;101030.88;5073976;28;20028;-34
2022/11/19 05:44:23;;;;;;;22.33;19.93;;;;;;;2.40;100.00;101033.41;5074401;28;20025;-34
2022/11/19 05:46:48;;;;;;;22.70;20.37;;;;;;;2.37;100.00;101034.56;5074466;28;20048;-34
2022/11/19 05:49:14;;;;;;;21.53;19.33;;;;;;;2.42;100.00;101045.56;5075172;28;20024;-34
2022/11/19 05:51:39;;;;;;;23.37;20.60;;;;;;;2.19;100.00;101018.78;5073245;28;20044;-34
2022/11/19 05:54:04;;;;;;;22.17;19.97;;;;;;;2.40;100.00;101039.56;5074794;28;20438;-34
2022/11/19 05:56:30;;;;;;;22.10;19.73;;;;;;;2.40;100.00;101033.41;5075286;28;20515;-34
2022/11/19 05:58:55;;;;;;;22.33;19.97;;;;;;;2.39;100.00;101039.72;5075223;28;20039;-34
2022/11/19 06:01:25;;;;;;;24.60;22.00;;;;;;;2.28;100.00;101052.44;5074216;28;20425;-35
2022/11/19 06:03:50;;;;;;;23.25;20.75;;;;;;;2.27;100.00;101042.78;5074743;28;20358;-34
2022/11/19 06:06:16;;;;;;;24.25;21.70;;;;;;;2.27;100.00;101045.44;5074348;28;20040;-34
2022/11/19 06:08:41;;;;;;;23.92;21.42;;;;;;;2.35;100.00;101054.44;5075475;28;20463;-34
2022/11/19 06:11:46;;;;;;;25.23;22.20;;;;;;;2.33;100.00;101057.28;5074171;28;20039;-34
2022/11/19 06:13:52;;;;;;;23.17;20.67;;;;;;;2.34;100.00;101064.25;5074005;28;20043;-34
2022/11/19 06:16:17;;;;;;;24.07;21.57;;;;;;;2.30;100.00;101069.13;5074268;28;20028;-34
2022/11/19 06:18:42;;;;;;;24.77;22.13;;;;;;;2.30;100.00;101076.31;5074272;28;20052;-34
2022/11/19 06:21:07;;;;;;;25.17;22.43;;;;;;;2.21;100.00;101067.50;5074379;28;20032;-35
2022/11/19 06:23:33;;;;;;;27.13;24.33;;;;;;;2.05;100.00;101068.38;5073817;28;20431;-34
2022/11/19 06:25:58;;;;;;;26.80;23.90;;;;;;;2.13;100.00;101083.50;5074610;28;20029;-34
2022/11/19 06:28:23;;;;;;;27.90;23.63;;;;;;;2.13;100.00;101085.34;5074306;28;20120;-34
2022/11/19 06:30:48;;;;;;;26.30;23.60;;;;;;;2.11;100.00;101093.53;5074013;28;20109;-34
2022/11/19 06:33:14;;;;;;;26.83;23.60;;;;;;;2.14;100.00;101097.69;5074265;28;20025;-34
2022/11/19 06:35:39;;;;;;;26.03;23.37;;;;;;;2.01;100.00;101101.72;5073526;28;20336;-34
2022/11/19 06:38:04;;;;;;;27.27;23.97;;;;;;;2.09;100.00;101106.19;5073593;28;20020;-34
2022/11/19 06:40:30;;;;;;;27.70;23.80;;;;;;;2.03;100.00;101101.53;5074159;28;20166;-34
2022/11/19 06:42:55;;;;;;;28.13;24.53;;;;;;;2.06;100.00;101112.72;5073857;28;20388;-34
2022/11/19 06:45:20;;;;;;;26.67;23.30;;;;;;;2.16;100.00;101114.38;5074210;28;20032;-34
2022/11/19 06:47:48;;;;;;;29.03;24.10;;;;;;;2.05;100.00;101110.22;5073779;28;20028;-34
2022/11/19 06:50:13;;;;;;;29.73;24.63;;;;;;;2.13;100.00;101106.69;5073644;28;20128;-34
2022/11/19 06:52:38;;;;;;;27.47;24.43;;;;;;;2.06;100.00;101109.22;5072993;28;20130;-34
2022/11/19 06:55:04;;;;;;;27.63;23.67;;;;;;;2.02;100.00;101108.72;5073235;28;20085;-34
2022/11/19 06:57:29;;;;;;;27.83;24.48;;;;;;;1.93;100.00;101108.88;5073475;28;20555;-34
2022/11/19 06:59:54;;;;;;;27.70;24.70;;;;;;;1.92;100.00;101117.91;5073144;28;20388;-34
2022/11/19 07:02:20;;;;;;;28.03;24.13;;;;;;;1.96;100.00;101117.38;5073470;28;20082;-34
2022/11/19 07:04:45;;;;;;;28.97;24.47;;;;;;;2.00;100.00;101118.72;5073410;28;20106;-34
2022/11/19 07:07:11;;;;;;;27.27;23.57;;;;;;;1.97;100.00;101107.56;5073818;28;20325;-34
2022/11/19 07:09:36;;;;;;;28.08;24.65;;;;;;;2.08;100.00;101125.03;5073055;28;20605;-34
2022/11/19 07:12:01;;;;;;;29.30;24.53;;;;;;;1.78;100.00;101108.72;5073827;28;20103;-34
2022/11/19 07:14:27;;;;;;;28.60;24.20;;;;;;;1.96;100.00;101127.22;5073378;28;20036;-34
2022/11/19 07:16:52;;;;;;;29.20;25.40;;;;;;;1.83;100.00;101140.22;5073962;28;20120;-34
2022/11/19 07:19:18;;;;;;;28.70;24.53;;;;;;;1.92;100.00;101125.91;5073817;28;20054;-34
2022/11/19 07:21:43;;;;;;;30.98;26.08;;;;;;;1.77;100.00;101123.91;5072150;28;20028;-34
2022/11/19 07:24:09;;;;;;;31.98;25.17;;;;;;;1.84;100.00;101123.22;5073002;28;20416;-34
2022/11/19 07:26:35;;;;;;;29.85;26.33;;;;;;;1.77;100.00;101136.41;5073124;28;20389;-34
2022/11/19 07:29:03;;;;;;;28.40;24.65;;;;;;;1.85;100.00;101144.38;5073591;28;20329;-34
2022/11/19 07:31:28;;;;;;;33.25;27.13;;;;;;;1.82;100.00;101141.22;5073090;28;20056;-34
2022/11/19 07:33:53;;;;;;;30.53;26.13;;;;;;;1.64;100.00;101141.38;5073491;28;20070;-34
2022/11/19 07:36:19;;;;;;;28.27;24.30;;;;;;;1.79;100.00;101150.38;5072600;28;20481;-34
2022/11/19 07:38:45;;;;;;;30.60;25.17;;;;;;;1.77;100.00;101161.22;5073563;28;20024;-34
2022/11/19 07:43:54;;;;;;;29.88;24.83;;;;;;;1.88;100.00;101167.22;5073484;28;20416;-34
2022/11/19 07:46:19;;;;;;;31.10;25.53;;;;;;;1.83;100.00;101173.06;5071744;28;20115;-34
2022/11/19 07:48:45;;;;;;;30.47;26.37;;;;;;;1.73;100.00;101167.88;5073597;28;20035;-34
2022/11/19 07:51:10;;;;;;;30.07;25.13;;;;;;;1.83;100.00;101173.06;5073123;28;20370;-34
2022/11/19 07:53:35;;;;;;;30.45;24.45;;;;;;;1.86;100.00;101175.41;5072894;28;20446;-34
2022/11/19 07:56:01;;;;;;;29.77;25.10;;;;;;;1.69;100.00;101147.88;5072816;28;20032;-34
2022/11/19 07:58:27;;;;;;;30.20;24.58;;;;;;;1.86;100.00;101183.41;5073434;28;20036;-34
2022/11/19 08:00:52;;;;;;;28.63;24.57;;;;;;;1.93;100.00;101178.22;5072769;28;20033;-34
2022/11/19 08:03:18;;;;;;;30.63;25.33;;;;;;;1.76;100.00;101180.06;5073032;28;20043;-34
2022/11/19 08:05:44;;;;;;;29.15;24.25;;;;;;;1.78;100.00;101165.56;5076395;28;20060;-34
2022/11/19 08:08:09;;;;;;;27.80;24.80;;;;;;;1.84;100.00;101172.06;5077318;28;20043;-34
2022/11/19 08:10:35;;;;;;;29.43;25.07;;;;;;;1.73;100.00;101167.88;5076814;28;20037;-34
2022/11/19 08:13:03;;;;;;;29.50;23.88;;;;;;;1.79;100.00;101169.88;5076860;28;20103;-34
2022/11/19 08:15:32;;;;;;;28.58;24.77;;;;;;;1.89;100.00;101193.72;5076196;28;20032;-34
2022/11/19 08:18:16;;;;;;;31.27;25.75;;;;;;;1.82;100.00;101187.41;5076630;28;20028;-34
2022/11/19 08:20:43;;;;;;;28.27;22.38;;;;;;;1.79;100.00;101188.53;5076789;28;20032;-34
2022/11/19 08:23:09;;;;;;;30.42;24.35;;;;;;;1.82;100.00;101200.72;5076532;28;20052;-34
2022/11/19 08:25:35;;;;;;;29.58;24.52;;;;;;;1.80;100.00;101194.72;5076399;28;20025;-34
2022/11/19 08:28:02;;;;;;;30.73;24.25;;;;;;;1.83;100.00;101209.56;5076080;28;20094;-34
2022/11/19 08:30:29;;;;;;;28.88;24.50;;;;;;;1.80;100.00;101208.88;5076230;28;20091;-34
2022/11/19 08:32:54;;;;;;;29.33;24.73;;;;;;;1.82;100.00;101206.06;5076255;28;20029;-34
2022/11/19 08:35:20;;;;;;;29.87;24.90;;;;;;;1.78;100.00;101213.56;5076878;28;20502;-34
2022/11/19 08:37:47;;;;;;;26.40;23.10;;;;;;;1.86;100.00;101214.56;5076745;28;20099;-34
2022/11/19 08:40:12;;;;;;;27.15;23.88;;;;;;;1.86;100.00;101214.56;5075995;28;20029;-34
2022/11/19 08:45:21;;;;;;;27.23;23.85;;;;;;;1.86;100.00;101218.06;5076380;28;20089;-34
2022/11/19 08:47:47;;;;;;;31.23;25.40;;;;;;;1.77;100.00;101203.88;5075883;28;20028;-34
2022/11/19 08:50:12;;;;;;;29.07;24.73;;;;;;;1.90;100.00;101222.06;5075547;28;20075;-34
2022/11/19 08:52:38;;;;;;;28.13;23.13;;;;;;;1.93;100.00;101212.91;5076593;28;20025;-34
2022/11/19 08:55:03;;;;;;;28.93;23.90;;;;;;;1.92;100.00;101208.56;5075673;28;20085;-34
2022/11/19 08:57:29;;;;;;;25.35;22.45;;;;;;;1.92;100.00;101197.91;5076342;28;20060;-34
2022/11/19 08:59:54;;;;;;;30.83;24.63;;;;;;;1.82;100.00;101213.22;5075244;28;20033;-34
2022/11/19 09:02:19;;;;;;;26.73;23.83;;;;;;;1.97;100.00;101231.06;5076043;28;20024;-34
2022/11/19 09:04:45;;;;;;;29.33;24.03;;;;;;;1.97;100.00;101217.75;5074911;28;20081;-34
2022/11/19 09:07:10;;;;;;;26.67;22.17;;;;;;;1.94;100.00;101219.91;5075945;28;20057;-34
2022/11/19 09:09:35;;;;;;;27.37;22.43;;;;;;;2.02;100.00;101226.09;5075544;28;20029;-34
2022/11/19 09:12:01;;;;;;;27.20;22.03;;;;;;;1.91;100.00;101222.91;5075481;28;20109;-34
2022/11/19 09:14:26;;;;;;;26.03;21.83;;;;;;;2.01;100.00;101235.09;5075389;28;20469;-34
2022/11/19 09:16:51;;;;;;;26.00;21.93;;;;;;;1.88;100.00;101223.22;5074456;28;20029;-34
2022/11/19 09:19:17;;;;;;;27.13;24.20;;;;;;;1.78;100.00;101229.53;5076066;28;20100;-34
2022/11/19 09:21:42;;;;;;;26.63;22.60;;;;;;;1.84;100.00;101236.06;5073714;28;20028;-34
2022/11/19 09:24:07;;;;;;;26.53;22.93;;;;;;;1.60;100.00;101215.50;5075034;28;20388;-34
2022/11/19 09:26:32;;;;;;;26.37;22.57;;;;;;;1.69;100.00;101219.88;5074863;28;20048;-34
2022/11/19 09:28:58;;;;;;;28.60;22.90;;;;;;;1.85;100.00;101243.06;5075675;28;20028;-34
2022/11/19 09:31:23;;;;;;;27.00;22.53;;;;;;;1.85;100.00;101245.72;5075010;28;20024;-34
2022/11/19 09:33:51;;;;;;;26.93;23.63;;;;;;;1.94;100.00;101246.56;5075436;28;20033;-34
2022/11/19 09:36:18;;;;;;;25.40;22.10;;;;;;;1.90;100.00;101243.38;5073470;28;20033;-34
2022/11/19 09:38:44;;;;;;;25.13;21.65;;;;;;;1.67;100.00;101227.19;5075220;28;20060;-34
2022/11/19 09:41:38;;;;;;;24.17;21.45;;;;;;;1.90;100.00;101247.88;5075193;28;20111;-34
2022/11/19 09:44:12;;;;;;;26.15;22.17;;;;;;;1.85;100.00;101244.88;5075117;28;20033;-34
2022/11/19 09:46:55;;;;;;;27.98;22.63;;;;;;;1.93;100.00;101271.59;5075044;28;20040;-34
2022/11/19 09:49:33;;;;;;;28.60;23.05;;;;;;;1.83;100.00;101265.56;5074999;28;20464;-34
2022/11/19 09:52:04;;;;;;;25.48;21.42;;;;;;;1.86;100.00;101268.75;5075379;28;20384;-34
2022/11/19 09:54:30;;;;;;;24.60;21.02;;;;;;;1.98;100.00;101270.09;5073778;28;20040;-34
2022/11/19 09:56:59;;;;;;;24.30;21.58;;;;;;;1.90;100.00;101280.72;5074385;28;20024;-34
2022/11/19 09:59:30;;;;;;;24.17;20.30;;;;;;;1.95;100.00;101282.91;5074681;28;20075;-34
2022/11/19 10:01:56;;;;;;;24.08;20.73;;;;;;;1.76;100.00;101292.88;5074383;28;20373;-34
2022/11/19 10:04:25;;;;;;;24.45;21.17;;;;;;;1.82;100.00;101288.72;5074401;28;20040;-34
2022/11/19 10:07:20;;;;;;;25.85;21.15;;;;;;;1.88;100.00;101290.75;5075063;28;20072;-34
2022/11/19 10:10:11;;;;;;;24.50;21.00;;;;;;;1.76;100.00;101298.22;5074394;28;20115;-34
2022/11/19 10:13:10;;;;;;;24.08;20.70;;;;;;;1.71;100.00;101262.38;5074538;28;20032;-34
2022/11/19 10:15:43;;;;;;;23.20;20.08;;;;;;;1.93;100.00;101295.59;5074415;28;20468;-34
2022/11/19 10:18:19;;;;;;;23.35;19.67;;;;;;;1.77;100.00;101277.72;5074429;28;20495;-34
2022/11/19 10:21:05;;;;;;;;;;;;;;;1.95;100.00;101293.56;5074550;28;20035;-34
2022/11/19 10:23:49;;;;;;;22.08;18.98;;;;;;;1.80;100.00;101296.88;5073902;28;19954;-34
2022/11/19 10:26:17;;;;;;;23.50;19.85;;;;;;;1.72;100.00;101298.72;5074784;28;20031;-34
2022/11/19 10:28:50;;;;;;;23.73;19.70;;;;;;;1.72;100.00;101277.38;5072801;28;20472;-34
2022/11/19 10:31:21;;;;;;;24.00;19.90;;;;;;;1.77;100.00;101307.88;5074063;28;20031;-34
2022/11/19 10:34:00;;;;;;;21.65;18.60;;;;;;;1.79;100.00;101311.22;5073578;28;20056;-34
2022/11/19 10:37:01;;;;;;;24.92;20.63;;;;;;;1.74;100.00;101310.84;5073641;28;20032;-34
2022/11/19 10:39:35;;;;;;;25.50;19.58;;;;;;;1.82;100.00;101319.91;4992998;28;20121;-34
2022/11/19 10:42:21;;;;;;;24.20;20.70;;;;;;;1.66;100.00;101318.84;4975916;28;20037;-34
2022/11/19 10:45:02;;;;;;;25.27;20.58;;;;;;;1.75;100.00;101312.53;4992689;28;20034;-34
2022/11/19 10:47:46;;;;;;;24.98;18.95;;;;;;;1.77;100.00;101294.53;4992598;28;20203;-34
2022/11/19 10:50:30;;;;;;;24.85;20.98;;;;;;;1.68;99.38;101302.69;4992048;28;20046;-34
2022/11/19 10:53:00;;;;;;;23.23;19.52;;;;;;;1.69;100.00;101304.34;4992404;28;20034;-34
2022/11/19 10:55:28;;;;;;;21.98;18.90;;;;;;;1.63;100.00;101311.16;4992091;28;20030;-35
2022/11/19 10:58:02;;;;;;;23.42;18.92;;;;;;;1.72;100.00;101312.88;4991955;28;20046;-35
2022/11/19 11:00:27;;;;;;;22.10;18.20;;;;;;;1.72;100.00;101301.38;4992154;28;20206;-35
2022/11/19 11:03:01;;;;;;;22.23;18.30;;;;;;;1.66;100.00;101305.53;4991799;28;20541;-35
2022/11/19 11:05:28;;;;;;;21.48;17.10;;;;;;;1.61;98.91;101313.16;4991459;28;20038;-35
2022/11/19 11:07:59;;;;;;;21.63;18.05;;;;;;;1.43;98.76;101299.09;4992333;28;20030;-35
2022/11/19 11:10:36;;;;;;;20.52;17.88;;;;;;;1.47;99.29;101306.63;4992088;28;20042;-35
2022/11/19 11:15:52;;;;;;;21.20;18.15;;;;;;;1.60;100.00;101311.47;5020151;28;20039;-35
2022/11/19 11:18:23;;;;;;;19.08;16.27;;;;;;;1.66;100.00;101308.19;5073263;28;20036;-35
2022/11/19 11:20:50;;;;;;;19.50;16.60;;;;;;;1.59;98.45;101315.16;5072757;28;20060;-35
2022/11/19 11:23:18;;;;;;;19.25;16.10;;;;;;;1.48;98.14;101313.59;5073337;28;20025;-35
2022/11/19 11:26:10;;;;;;;20.23;17.08;;;;;;;1.41;98.67;101312.56;5073213;28;20028;-35
2022/11/19 11:28:36;;;;;;;20.35;16.38;;;;;;;1.47;100.00;101300.44;5068696;28;20468;-35
2022/11/19 11:31:04;;;;;;;22.13;17.73;;;;;;;1.47;99.41;101295.94;5073182;28;20070;-35
2022/11/19 11:33:34;;;;;;;18.98;16.08;;;;;;;1.32;98.39;101308.22;5072991;28;20569;-35